createdAt,value
2023-03-15T00:01:11.544Z,0.85
2023-03-15T00:03:39.954Z,0.95
2023-03-15T00:06:08.848Z,1.67
2023-03-15T00:08:37.074Z,1.73
2023-03-15T00:11:05.657Z,0.95
2023-03-15T00:13:35.452Z,1.35
2023-03-15T00:16:04.252Z,1.88
2023-03-15T00:18:32.932Z,1.60
2023-03-15T00:21:02.031Z,1.60
2023-03-15T00:23:31.543Z,2.30
2023-03-15T00:25:59.732Z,5.78
2023-03-15T00:28:28.044Z,1.60
2023-03-15T00:31:07.748Z,2.05
2023-03-15T00:33:37.268Z,2.42
2023-03-15T00:36:10.239Z,4.20
2023-03-15T00:38:40.455Z,3.10
2023-03-15T00:41:09.927Z,3.50
2023-03-15T00:43:38.172Z,5.18
2023-03-15T00:46:08.239Z,4.60
2023-03-15T00:48:36.744Z,3.72
2023-03-15T00:51:06.817Z,2.78
2023-03-15T00:53:39.143Z,2.90
2023-03-15T00:56:10.130Z,3.60
2023-03-15T00:58:38.399Z,2.65
2023-03-15T01:01:09.151Z,2.67
2023-03-15T01:03:39.589Z,1.77
2023-03-15T01:06:08.669Z,2.03
2023-03-15T01:08:37.048Z,0.40
2023-03-15T01:11:06.648Z,0.70
2023-03-15T01:13:35.417Z,1.20
2023-03-15T01:16:03.847Z,1.55
2023-03-15T01:18:33.774Z,0.85
2023-03-15T01:21:02.171Z,1.13
2023-03-15T01:23:31.454Z,1.08
2023-03-15T01:26:01.410Z,0.47
2023-03-15T01:28:30.063Z,0.60
2023-03-15T01:30:59.976Z,0.57
2023-03-15T01:33:28.863Z,0.75
2023-03-15T01:36:04.028Z,0.50
2023-03-15T01:38:32.832Z,0.77
2023-03-15T01:41:01.723Z,0.63
2023-03-15T01:43:31.837Z,0.30
2023-03-15T01:46:16.106Z,0.50
2023-03-15T01:48:51.079Z,0.47
2023-03-15T01:51:32.206Z,0.65
2023-03-15T01:54:04.310Z,0.70
2023-03-15T01:56:37.133Z,0.40
2023-03-15T01:59:08.569Z,0.50
2023-03-15T02:01:38.042Z,0.40
2023-03-15T02:04:10.569Z,0.85
2023-03-15T02:06:46.594Z,0.50
2023-03-15T02:09:19.133Z,0.60
2023-03-15T02:11:49.712Z,0.95
2023-03-15T02:14:19.800Z,0.65
2023-03-15T02:16:49.237Z,0.77
2023-03-15T02:19:34.749Z,1.13
2023-03-15T02:22:17.040Z,1.00
2023-03-15T02:24:54.565Z,0.95
2023-03-15T02:27:31.740Z,1.13
2023-03-15T02:30:03.331Z,0.98
2023-03-15T02:32:32.168Z,2.30
2023-03-15T02:35:00.426Z,1.92
2023-03-15T02:37:28.629Z,1.23
2023-03-15T02:39:56.864Z,1.15
2023-03-15T02:42:25.318Z,0.82
2023-03-15T02:44:56.141Z,1.35
2023-03-15T02:47:28.374Z,0.70
2023-03-15T02:49:56.974Z,1.48
2023-03-15T02:52:26.252Z,1.23
2023-03-15T02:54:54.483Z,1.30
2023-03-15T02:57:22.772Z,1.27
2023-03-15T02:59:51.649Z,1.02
2023-03-15T03:02:21.769Z,1.10
2023-03-15T03:04:50.036Z,1.08
2023-03-15T03:07:20.467Z,1.13
2023-03-15T03:09:53.131Z,2.00
2023-03-15T03:12:22.794Z,1.17
2023-03-15T03:14:51.037Z,1.35
2023-03-15T03:17:24.656Z,0.95
2023-03-15T03:19:52.924Z,2.85
2023-03-15T03:22:27.437Z,1.55
2023-03-15T03:24:56.185Z,1.35
2023-03-15T03:27:24.466Z,0.90
2023-03-15T03:29:52.871Z,1.42
2023-03-15T03:32:21.116Z,1.20
2023-03-15T03:34:50.771Z,1.40
2023-03-15T03:37:23.178Z,0.80
2023-03-15T03:40:06.885Z,1.55
2023-03-15T03:42:35.573Z,1.17
2023-03-15T03:45:05.146Z,1.35
2023-03-15T03:47:41.015Z,1.20
2023-03-15T03:50:12.543Z,1.33
2023-03-15T03:52:43.789Z,1.27
2023-03-15T03:55:16.674Z,1.77
2023-03-15T03:57:45.723Z,1.40
2023-03-15T04:00:22.651Z,1.02
2023-03-15T04:02:54.094Z,1.08
2023-03-15T04:05:23.806Z,1.52
2023-03-15T04:07:51.992Z,2.72
2023-03-15T04:10:26.791Z,2.15
2023-03-15T04:12:55.574Z,3.22
2023-03-15T04:15:24.796Z,3.65
2023-03-15T04:17:55.936Z,2.22
2023-03-15T04:20:28.439Z,2.35
2023-03-15T04:22:56.688Z,3.95
2023-03-15T04:25:46.723Z,3.78
2023-03-15T04:28:38.890Z,2.53
2023-03-15T04:31:17.464Z,3.10
2023-03-15T04:34:02.223Z,2.65
2023-03-15T04:36:54.633Z,1.23
2023-03-15T04:39:42.698Z,2.72
2023-03-15T04:42:22.789Z,1.15
2023-03-15T04:45:09.351Z,1.60
2023-03-15T04:48:01.367Z,1.88
2023-03-15T04:51:01.770Z,1.25
2023-03-15T04:53:53.355Z,1.85
2023-03-15T04:56:27.547Z,1.42
2023-03-15T04:59:15.993Z,0.90
2023-03-15T05:01:56.215Z,2.88
2023-03-15T05:04:39.985Z,0.82
2023-03-15T05:07:11.270Z,1.58
2023-03-15T05:09:59.634Z,1.70
2023-03-15T05:12:41.026Z,1.20
2023-03-15T05:15:35.581Z,1.25
2023-03-15T05:18:29.251Z,1.55
2023-03-15T05:21:33.274Z,0.95
2023-03-15T05:24:19.409Z,1.63
2023-03-15T05:26:56.028Z,1.80
2023-03-15T05:29:27.165Z,1.33
2023-03-15T05:32:13.927Z,1.45
2023-03-15T05:35:03.978Z,1.58
2023-03-15T05:37:50.932Z,1.77
2023-03-15T05:40:34.157Z,1.55
2023-03-15T05:43:27.239Z,1.10
2023-03-15T05:46:14.532Z,1.17
2023-03-15T05:49:05.727Z,1.15
2023-03-15T05:51:41.683Z,1.98
2023-03-15T05:54:16.864Z,2.13
2023-03-15T05:57:13.696Z,1.50
2023-03-15T06:00:01.993Z,1.20
2023-03-15T06:02:42.256Z,1.67
2023-03-15T06:05:28.835Z,1.50
2023-03-15T06:07:58.265Z,1.75
2023-03-15T06:10:28.714Z,1.30
2023-03-15T06:12:58.771Z,1.17
2023-03-15T06:15:28.926Z,2.15
2023-03-15T06:17:57.962Z,1.63
2023-03-15T06:20:29.087Z,1.40
2023-03-15T06:23:01.577Z,1.65
2023-03-15T06:25:40.922Z,2.58
2023-03-15T06:28:11.517Z,4.18
2023-03-15T06:30:45.897Z,3.30
2023-03-15T06:33:14.169Z,2.97
2023-03-15T06:35:42.701Z,2.35
2023-03-15T06:38:13.702Z,2.83
2023-03-15T06:40:41.894Z,1.58
2023-03-15T06:43:14.049Z,2.15
2023-03-15T06:45:42.897Z,1.70
2023-03-15T06:48:12.505Z,1.48
2023-03-15T06:50:47.352Z,1.60
2023-03-15T06:53:16.838Z,1.50
2023-03-15T06:55:45.570Z,2.08
2023-03-15T06:58:16.461Z,2.55
2023-03-15T07:00:44.857Z,1.35
2023-03-15T07:03:14.427Z,1.42
2023-03-15T07:05:42.604Z,1.45
2023-03-15T07:08:10.787Z,1.77
2023-03-15T07:10:39.081Z,1.98
2023-03-15T07:13:10.223Z,1.40
2023-03-15T07:15:38.480Z,1.73
2023-03-15T07:18:08.247Z,1.60
2023-03-15T07:20:38.012Z,0.88
2023-03-15T07:23:06.265Z,1.42
2023-03-15T07:25:42.234Z,1.92
2023-03-15T07:28:20.384Z,1.85
2023-03-15T07:30:55.192Z,2.67
2023-03-15T07:33:24.164Z,0.90
2023-03-15T07:35:54.802Z,1.30
2023-03-15T07:38:24.242Z,1.27
2023-03-15T07:40:52.789Z,1.23
2023-03-15T07:43:21.542Z,1.35
2023-03-15T07:45:52.536Z,1.27
2023-03-15T07:48:20.730Z,1.38
2023-03-15T07:50:48.929Z,1.50
2023-03-15T07:53:18.470Z,1.25
2023-03-15T07:55:48.648Z,1.65
2023-03-15T07:58:19.776Z,1.20
2023-03-15T08:00:49.005Z,1.52
2023-03-15T08:03:17.538Z,1.52
2023-03-15T08:05:45.768Z,1.88
2023-03-15T08:08:14.012Z,1.33
2023-03-15T08:10:44.620Z,1.15
2023-03-15T08:13:13.159Z,1.92
2023-03-15T08:15:42.047Z,1.10
2023-03-15T08:18:10.314Z,1.42
2023-03-15T08:20:38.594Z,1.13
2023-03-15T08:23:06.759Z,1.15
2023-03-15T08:25:35.187Z,2.40
2023-03-15T08:28:04.798Z,2.00
2023-03-15T08:30:32.955Z,0.98
2023-03-15T08:33:01.211Z,1.80
2023-03-15T08:35:29.453Z,1.70
2023-03-15T08:37:57.685Z,1.48
2023-03-15T08:40:25.946Z,1.20
2023-03-15T08:42:54.865Z,0.60
2023-03-15T08:45:25.483Z,1.60
2023-03-15T08:47:56.289Z,1.45
2023-03-15T08:50:24.986Z,1.25
2023-03-15T08:52:53.347Z,1.13
2023-03-15T08:55:21.583Z,0.80
2023-03-15T08:57:49.765Z,0.93
2023-03-15T09:00:20.774Z,1.30
2023-03-15T09:02:51.922Z,1.45
2023-03-15T09:05:21.078Z,1.58
2023-03-15T09:07:52.977Z,1.20
2023-03-15T09:10:22.056Z,1.65
2023-03-15T09:12:53.597Z,1.40
2023-03-15T09:15:22.072Z,1.40
2023-03-15T09:17:52.294Z,0.90
2023-03-15T09:20:22.820Z,1.65
2023-03-15T09:22:53.077Z,0.98
2023-03-15T09:25:22.425Z,1.15
2023-03-15T09:27:50.914Z,0.70
2023-03-15T09:30:20.042Z,1.35
2023-03-15T09:32:51.899Z,1.05
2023-03-15T09:35:22.094Z,1.25
2023-03-15T09:37:52.418Z,1.10
2023-03-15T09:40:23.973Z,1.42
2023-03-15T09:43:01.267Z,0.85
2023-03-15T09:45:39.272Z,0.50
2023-03-15T09:48:12.969Z,0.70
2023-03-15T09:50:47.532Z,1.10
2023-03-15T09:53:19.939Z,0.98
2023-03-15T09:55:51.668Z,1.25
2023-03-15T09:58:23.930Z,1.45
2023-03-15T10:00:55.675Z,0.88
2023-03-15T10:03:31.702Z,1.05
2023-03-15T10:06:03.789Z,1.38
2023-03-15T10:08:32.112Z,1.77
2023-03-15T10:11:07.907Z,1.10
2023-03-15T10:13:51.360Z,1.60
2023-03-15T10:16:39.805Z,1.10
2023-03-15T10:19:19.828Z,2.10
2023-03-15T10:21:55.199Z,1.48
2023-03-15T10:24:29.585Z,5.18
2023-03-15T10:27:00.886Z,1.20
2023-03-15T10:29:32.075Z,0.85
2023-03-15T10:32:01.313Z,2.13
2023-03-15T10:34:31.431Z,0.65
2023-03-15T10:36:59.827Z,1.20
2023-03-15T10:39:28.054Z,0.98
2023-03-15T10:41:56.251Z,1.05
2023-03-15T10:44:26.478Z,1.25
2023-03-15T10:47:21.939Z,1.85
2023-03-15T10:49:57.527Z,1.33
2023-03-15T10:52:35.667Z,1.05
2023-03-15T10:55:12.237Z,2.22
2023-03-15T10:57:42.876Z,1.13
2023-03-15T11:00:27.380Z,1.33
2023-03-15T11:03:03.912Z,1.58
2023-03-15T11:05:41.464Z,1.00
2023-03-15T11:08:15.254Z,0.85
2023-03-15T11:10:45.030Z,1.35
2023-03-15T11:13:19.704Z,0.95
2023-03-15T11:15:57.439Z,1.73
2023-03-15T11:18:32.091Z,1.10
2023-03-15T11:21:04.897Z,2.03
2023-03-15T11:23:36.507Z,1.25
2023-03-15T11:26:06.197Z,2.38
2023-03-15T11:28:38.190Z,0.63
2023-03-15T11:31:07.224Z,1.10
2023-03-15T11:33:46.927Z,1.10
2023-03-15T11:36:19.475Z,1.08
2023-03-15T11:38:48.117Z,1.08
2023-03-15T11:41:27.557Z,1.95
2023-03-15T11:44:07.548Z,1.05
2023-03-15T11:46:41.330Z,1.25
2023-03-15T11:49:17.665Z,0.68
2023-03-15T11:51:47.320Z,1.30
2023-03-15T11:54:17.293Z,1.35
2023-03-15T11:56:56.686Z,0.82
2023-03-15T11:59:30.082Z,0.75
2023-03-15T12:02:01.006Z,1.10
2023-03-15T12:04:39.840Z,2.22
2023-03-15T12:07:30.157Z,0.80
2023-03-15T12:10:18.847Z,0.80
2023-03-15T12:12:49.827Z,1.00
2023-03-15T12:15:46.209Z,1.08
2023-03-15T12:18:32.255Z,1.08
2023-03-15T12:21:10.200Z,2.47
2023-03-15T12:23:46.437Z,1.10
2023-03-15T12:26:26.584Z,1.08
2023-03-15T12:29:06.724Z,0.30
2023-03-15T12:31:59.869Z,0.75
2023-03-15T12:34:37.212Z,1.25
2023-03-15T12:37:14.903Z,0.90
2023-03-15T12:39:48.080Z,1.85
2023-03-15T12:43:00.440Z,1.05
2023-03-15T12:45:45.569Z,1.58
2023-03-15T12:48:29.879Z,0.70
2023-03-15T12:51:04.867Z,0.70
2023-03-15T12:53:43.724Z,0.65
2023-03-15T12:56:35.081Z,0.80
2023-03-15T12:59:13.316Z,0.60
2023-03-15T13:01:43.693Z,0.88
2023-03-15T13:04:13.762Z,0.90
2023-03-15T13:07:05.293Z,0.82
2023-03-15T13:10:18.943Z,1.05
2023-03-15T13:12:54.617Z,0.82
2023-03-15T13:15:30.582Z,1.10
2023-03-15T13:18:04.543Z,1.48
2023-03-15T13:20:44.116Z,1.17
2023-03-15T13:23:18.654Z,1.55
2023-03-15T13:25:55.955Z,1.02
2023-03-15T13:28:37.139Z,1.60
2023-03-15T13:31:14.443Z,1.00
2023-03-15T13:33:43.061Z,0.60
2023-03-15T13:36:16.038Z,1.35
2023-03-15T13:38:45.928Z,1.20
2023-03-15T13:41:19.676Z,0.80
2023-03-15T13:43:51.274Z,0.88
2023-03-15T13:46:22.740Z,0.85
2023-03-15T13:48:55.052Z,1.38
2023-03-15T13:51:28.182Z,1.30
2023-03-15T13:54:01.796Z,0.40
2023-03-15T13:56:43.715Z,0.65
2023-03-15T13:59:18.930Z,1.58
2023-03-15T14:01:47.231Z,1.38
2023-03-15T14:04:18.646Z,1.40
2023-03-15T14:06:47.800Z,0.90
2023-03-15T14:09:20.317Z,1.38
2023-03-15T14:12:02.499Z,1.38
2023-03-15T14:14:33.454Z,0.88
2023-03-15T14:17:07.575Z,0.57
2023-03-15T14:19:36.910Z,1.75
2023-03-15T14:22:14.499Z,1.35
2023-03-15T14:24:44.771Z,1.42
2023-03-15T14:27:18.872Z,1.45
2023-03-15T14:29:51.447Z,1.20
2023-03-15T14:32:32.074Z,1.42
2023-03-15T14:35:05.938Z,1.08
2023-03-15T14:37:39.470Z,1.48
2023-03-15T14:40:20.916Z,1.00
2023-03-15T14:42:50.172Z,1.42
2023-03-15T14:45:22.256Z,1.33
2023-03-15T14:47:57.285Z,1.25
2023-03-15T14:50:28.334Z,0.93
2023-03-15T14:52:58.374Z,1.40
2023-03-15T14:55:33.428Z,0.38
2023-03-15T14:58:02.121Z,1.85
2023-03-15T15:00:31.941Z,3.92
2023-03-15T15:03:03.457Z,1.88
2023-03-15T15:05:35.922Z,1.13
2023-03-15T15:08:07.844Z,1.33
2023-03-15T15:10:36.984Z,1.27
2023-03-15T15:13:07.270Z,3.45
2023-03-15T15:15:54.005Z,1.05
2023-03-15T15:18:24.234Z,1.25
2023-03-15T15:20:55.303Z,0.82
2023-03-15T15:23:26.703Z,1.35
2023-03-15T15:25:58.097Z,1.38
2023-03-15T15:28:35.785Z,1.45
2023-03-15T15:31:07.864Z,1.13
2023-03-15T15:33:39.104Z,1.50
2023-03-15T15:36:12.043Z,1.88
2023-03-15T15:38:40.583Z,2.15
2023-03-15T15:41:14.814Z,1.30
2023-03-15T15:43:43.876Z,1.73
2023-03-15T15:46:13.943Z,2.97
2023-03-15T15:48:42.776Z,1.65
2023-03-15T15:51:27.973Z,1.70
2023-03-15T15:53:59.198Z,1.60
2023-03-15T15:56:33.033Z,1.63
2023-03-15T15:59:03.092Z,2.72
2023-03-15T16:01:36.550Z,3.78
2023-03-15T16:04:07.559Z,4.03
2023-03-15T16:06:37.298Z,4.97
2023-03-15T16:09:08.278Z,8.05
2023-03-15T16:11:36.482Z,8.48
2023-03-15T16:14:04.679Z,15.75
2023-03-15T16:16:34.239Z,12.02
2023-03-15T16:19:02.497Z,7.75
2023-03-15T16:21:34.960Z,5.30
2023-03-15T16:24:08.169Z,3.60
2023-03-15T16:26:38.932Z,2.72
2023-03-15T16:29:16.830Z,2.97
2023-03-15T16:31:48.055Z,3.80
2023-03-15T16:34:18.513Z,2.50
2023-03-15T16:36:55.562Z,2.15
2023-03-15T16:39:24.043Z,1.95
2023-03-15T16:41:55.286Z,2.38
2023-03-15T16:44:23.492Z,2.85
2023-03-15T16:46:53.105Z,5.03
2023-03-15T16:49:21.350Z,3.58
2023-03-15T16:51:52.503Z,2.53
2023-03-15T16:54:38.263Z,2.22
2023-03-15T16:57:15.203Z,2.45
2023-03-15T16:59:43.487Z,2.78
2023-03-15T17:02:19.776Z,2.58
2023-03-15T17:04:48.287Z,1.77
2023-03-15T17:07:17.531Z,2.25
2023-03-15T17:09:48.242Z,2.20
2023-03-15T17:12:21.952Z,2.20
2023-03-15T17:14:53.005Z,2.10
2023-03-15T17:17:22.685Z,8.27
2023-03-15T17:19:52.699Z,5.80
2023-03-15T17:22:21.860Z,5.22
2023-03-15T17:24:50.964Z,7.30
2023-03-15T17:27:23.435Z,5.53
2023-03-15T17:29:51.742Z,5.57
2023-03-15T17:32:19.989Z,4.90
2023-03-15T17:34:49.613Z,4.00
2023-03-15T17:37:19.823Z,4.65
2023-03-15T17:39:48.665Z,4.78
2023-03-15T17:42:16.894Z,5.30
2023-03-15T17:44:45.196Z,4.30
2023-03-15T17:47:14.254Z,3.97
2023-03-15T17:49:42.661Z,4.82
2023-03-15T17:52:15.233Z,7.50
2023-03-15T17:54:43.475Z,4.40
2023-03-15T17:57:12.965Z,4.43
2023-03-15T17:59:41.983Z,3.67
2023-03-15T18:02:15.770Z,3.50
2023-03-15T18:04:44.022Z,2.83
2023-03-15T18:07:13.548Z,4.60
2023-03-15T18:09:41.789Z,6.05
2023-03-15T18:12:15.396Z,9.68
2023-03-15T18:14:43.753Z,13.27
2023-03-15T18:17:12.284Z,13.93
2023-03-15T18:19:40.665Z,12.65
2023-03-15T18:22:15.836Z,10.73
2023-03-15T18:24:46.905Z,9.90
2023-03-15T18:27:15.292Z,12.10
2023-03-15T18:29:43.497Z,10.43
2023-03-15T18:32:11.901Z,9.48
2023-03-15T18:34:41.126Z,10.95
2023-03-15T18:37:11.551Z,11.02
2023-03-15T18:39:42.069Z,10.95
2023-03-15T18:42:11.484Z,13.13
2023-03-15T18:44:39.650Z,14.00
2023-03-15T18:47:08.669Z,15.15
2023-03-15T18:49:36.878Z,13.38
2023-03-15T18:52:05.342Z,11.60
2023-03-15T18:54:33.519Z,11.60
2023-03-15T18:57:03.059Z,10.18
2023-03-15T18:59:31.502Z,12.30
2023-03-15T19:01:59.755Z,13.20
2023-03-15T19:04:27.974Z,13.13
2023-03-15T19:06:56.172Z,11.35
2023-03-15T19:09:24.348Z,10.38
2023-03-15T19:11:52.542Z,9.55
2023-03-15T19:14:22.110Z,7.00
2023-03-15T19:16:51.047Z,6.90
2023-03-15T19:19:19.248Z,9.55
2023-03-15T19:21:49.857Z,9.25
2023-03-15T19:24:18.120Z,9.45
2023-03-15T19:26:48.631Z,10.15
2023-03-15T19:29:16.789Z,9.45
2023-03-15T19:31:48.734Z,13.55
2023-03-15T19:34:16.984Z,12.40
2023-03-15T19:36:45.345Z,10.48
2023-03-15T19:39:13.856Z,8.77
2023-03-15T19:41:42.770Z,9.45
2023-03-15T19:44:11.966Z,10.82
2023-03-15T19:46:40.353Z,11.57
2023-03-15T19:49:10.261Z,12.50
2023-03-15T19:51:38.391Z,11.93
2023-03-15T19:54:06.709Z,14.05
2023-03-15T19:56:34.873Z,11.85
2023-03-15T19:59:03.153Z,14.60
2023-03-15T20:01:32.284Z,13.27
2023-03-15T20:04:00.786Z,10.13
2023-03-15T20:06:33.286Z,10.02
2023-03-15T20:09:01.710Z,10.60
2023-03-15T20:11:32.160Z,10.10
2023-03-15T20:14:00.384Z,9.00
2023-03-15T20:16:31.786Z,8.50
2023-03-15T20:19:00.233Z,8.18
2023-03-15T20:21:29.358Z,9.10
2023-03-15T20:23:58.990Z,10.18
2023-03-15T20:26:29.091Z,9.02
2023-03-15T20:28:57.241Z,9.70
2023-03-15T20:31:26.486Z,9.32
2023-03-15T20:33:54.865Z,7.20
2023-03-15T20:36:23.082Z,7.60
2023-03-15T20:38:51.261Z,7.00
2023-03-15T20:41:21.218Z,6.10
2023-03-15T20:43:49.491Z,7.47
2023-03-15T20:46:19.274Z,9.30
2023-03-15T20:48:47.578Z,7.70
2023-03-15T20:51:15.759Z,6.38
2023-03-15T20:53:44.121Z,6.82
2023-03-15T20:56:16.369Z,6.15
2023-03-15T20:58:47.625Z,4.88
2023-03-15T21:01:18.714Z,5.25
2023-03-15T21:03:47.577Z,5.95
2023-03-15T21:06:15.851Z,5.53
2023-03-15T21:08:45.946Z,6.18
2023-03-15T21:11:14.171Z,9.75
2023-03-15T21:13:42.472Z,8.15
2023-03-15T21:16:13.260Z,8.05
2023-03-15T21:18:47.597Z,7.05
2023-03-15T21:21:16.117Z,7.15
2023-03-15T21:23:44.760Z,5.60
2023-03-15T21:26:14.561Z,6.25
2023-03-15T21:28:43.080Z,6.18
2023-03-15T21:31:12.840Z,5.75
2023-03-15T21:33:41.352Z,6.57
2023-03-15T21:36:09.733Z,6.80
2023-03-15T21:38:37.941Z,6.18
2023-03-15T21:41:11.178Z,6.93
2023-03-15T21:43:39.777Z,7.82
2023-03-15T21:46:11.706Z,6.70
2023-03-15T21:48:43.440Z,6.28
2023-03-15T21:51:14.724Z,7.13
2023-03-15T21:53:43.473Z,6.75
2023-03-15T21:56:13.709Z,7.70
2023-03-15T21:58:41.907Z,7.32
2023-03-15T22:01:10.112Z,7.28
2023-03-15T22:03:39.321Z,6.00
2023-03-15T22:06:09.166Z,7.00
2023-03-15T22:08:37.354Z,7.55
2023-03-15T22:11:07.926Z,6.25
2023-03-15T22:13:36.942Z,7.38
2023-03-15T22:16:05.829Z,6.47
2023-03-15T22:18:34.128Z,6.57
2023-03-15T22:21:02.459Z,8.05
2023-03-15T22:23:32.137Z,6.35
2023-03-15T22:26:00.581Z,5.22
2023-03-15T22:28:28.785Z,6.47
2023-03-15T22:30:57.052Z,6.75
2023-03-15T22:33:25.320Z,7.53
2023-03-15T22:35:57.433Z,5.80
2023-03-15T22:38:29.027Z,6.20
2023-03-15T22:41:07.451Z,7.18
2023-03-15T22:43:36.218Z,5.85
2023-03-15T22:46:05.069Z,7.13
2023-03-15T22:48:33.374Z,9.48
2023-03-15T22:51:02.914Z,7.25
2023-03-15T22:53:31.467Z,7.15
2023-03-15T22:56:00.013Z,6.78
2023-03-15T22:58:29.572Z,6.55
2023-03-15T23:00:57.850Z,6.20
2023-03-15T23:03:26.311Z,7.50
2023-03-15T23:05:54.845Z,8.05
2023-03-15T23:08:24.216Z,7.35
2023-03-15T23:10:52.692Z,6.80
2023-03-15T23:13:21.489Z,6.20
2023-03-15T23:15:51.148Z,6.32
2023-03-15T23:18:19.907Z,8.95
2023-03-15T23:20:50.415Z,6.45
2023-03-15T23:23:18.602Z,7.32
2023-03-15T23:25:46.949Z,7.60
2023-03-15T23:28:17.260Z,6.63
2023-03-15T23:30:45.832Z,7.25
2023-03-15T23:33:15.407Z,6.25
2023-03-15T23:35:43.704Z,8.70
2023-03-15T23:38:13.539Z,8.40
2023-03-15T23:40:41.722Z,9.13
2023-03-15T23:43:09.934Z,9.88
2023-03-15T23:45:38.118Z,9.10
2023-03-15T23:48:06.689Z,7.40
2023-03-15T23:50:38.083Z,6.28
2023-03-15T23:53:06.286Z,5.47
2023-03-15T23:55:34.539Z,5.50
2023-03-15T23:58:02.975Z,7.32
